sensor_id;sensor_type;location;lat;lon;timestamp;P1;durP1;ratioP1;P2;durP2;ratioP2
1014;SDS011;8170;48.118;11.628;2022-12-20T00:00:00;14.45;;;10.55;;
1014;SDS011;8170;48.118;11.628;2022-12-20T00:01:05;11.63;;;10.32;;
1014;SDS011;8170;48.118;11.628;2022-12-20T00:02:08;14.48;;;10.05;;
1014;SDS011;8170;48.118;11.628;2022-12-20T00:03:12;13.00;;;10.57;;
1014;SDS011;8170;48.118;11.628;2022-12-20T00:04:14;10.95;;;8.50;;
1014;SDS011;8170;48.118;11.628;2022-12-20T00:05:17;18.10;;;10.43;;
1014;SDS011;8170;48.118;11.628;2022-12-20T00:06:20;13.93;;;10.48;;
1014;SDS011;8170;48.118;11.628;2022-12-20T00:07:24;16.35;;;11.02;;
1014;SDS011;8170;48.118;11.628;2022-12-20T00:08:26;17.50;;;10.25;;
1014;SDS011;8170;48.118;11.628;2022-12-20T00:09:31;11.50;;;8.98;;
1014;SDS011;8170;48.118;11.628;2022-12-20T00:10:34;12.20;;;10.15;;
1014;SDS011;8170;48.118;11.628;2022-12-20T00:11:37;13.05;;;10.30;;
1014;SDS011;8170;48.118;11.628;2022-12-20T00:12:41;12.95;;;9.90;;
1014;SDS011;8170;48.118;11.628;2022-12-20T00:13:44;12.20;;;9.02;;
1014;SDS011;8170;48.118;11.628;2022-12-20T00:14:48;13.65;;;10.90;;
1014;SDS011;8170;48.118;11.628;2022-12-20T00:15:50;14.10;;;10.55;;
1014;SDS011;8170;48.118;11.628;2022-12-20T00:17:05;10.02;;;8.23;;
1014;SDS011;8170;48.118;11.628;2022-12-20T00:18:11;11.70;;;8.35;;
1014;SDS011;8170;48.118;11.628;2022-12-20T00:19:13;10.38;;;8.07;;
1014;SDS011;8170;48.118;11.628;2022-12-20T00:20:16;11.27;;;8.48;;
1014;SDS011;8170;48.118;11.628;2022-12-20T00:21:19;10.57;;;8.38;;
1014;SDS011;8170;48.118;11.628;2022-12-20T00:22:22;9.73;;;7.72;;
1014;SDS011;8170;48.118;11.628;2022-12-20T00:23:24;11.43;;;8.10;;
1014;SDS011;8170;48.118;11.628;2022-12-20T00:24:29;9.00;;;7.05;;
1014;SDS011;8170;48.118;11.628;2022-12-20T00:25:33;10.68;;;7.80;;
1014;SDS011;8170;48.118;11.628;2022-12-20T00:26:36;11.13;;;8.88;;
1014;SDS011;8170;48.118;11.628;2022-12-20T00:27:39;12.48;;;9.70;;
1014;SDS011;8170;48.118;11.628;2022-12-20T00:28:42;9.38;;;8.07;;
1014;SDS011;8170;48.118;11.628;2022-12-20T00:29:46;9.25;;;7.35;;
1014;SDS011;8170;48.118;11.628;2022-12-20T00:30:51;8.70;;;7.35;;
1014;SDS011;8170;48.118;11.628;2022-12-20T00:31:55;9.73;;;7.57;;
1014;SDS011;8170;48.118;11.628;2022-12-20T00:32:58;11.02;;;7.93;;
1014;SDS011;8170;48.118;11.628;2022-12-20T00:34:00;11.13;;;9.38;;
1014;SDS011;8170;48.118;11.628;2022-12-20T00:35:04;10.70;;;7.93;;
1014;SDS011;8170;48.118;11.628;2022-12-20T00:36:07;9.13;;;7.63;;
1014;SDS011;8170;48.118;11.628;2022-12-20T00:37:11;9.38;;;7.60;;
1014;SDS011;8170;48.118;11.628;2022-12-20T00:38:13;10.10;;;7.85;;
1014;SDS011;8170;48.118;11.628;2022-12-20T00:39:16;9.75;;;6.80;;
1014;SDS011;8170;48.118;11.628;2022-12-20T00:40:20;10.10;;;7.80;;
1014;SDS011;8170;48.118;11.628;2022-12-20T00:41:24;9.98;;;6.25;;
1014;SDS011;8170;48.118;11.628;2022-12-20T00:42:27;7.50;;;6.30;;
1014;SDS011;8170;48.118;11.628;2022-12-20T00:43:31;9.45;;;7.47;;
1014;SDS011;8170;48.118;11.628;2022-12-20T00:44:33;10.20;;;6.82;;
1014;SDS011;8170;48.118;11.628;2022-12-20T00:45:36;9.45;;;7.15;;
1014;SDS011;8170;48.118;11.628;2022-12-20T00:46:38;8.85;;;6.88;;
1014;SDS011;8170;48.118;11.628;2022-12-20T00:47:43;10.30;;;8.27;;
1014;SDS011;8170;48.118;11.628;2022-12-20T00:48:45;9.40;;;7.35;;
1014;SDS011;8170;48.118;11.628;2022-12-20T00:49:48;11.32;;;7.53;;
1014;SDS011;8170;48.118;11.628;2022-12-20T00:50:50;8.75;;;7.10;;
1014;SDS011;8170;48.118;11.628;2022-12-20T00:51:54;7.72;;;6.75;;
1014;SDS011;8170;48.118;11.628;2022-12-20T00:52:56;7.65;;;6.20;;
1014;SDS011;8170;48.118;11.628;2022-12-20T00:53:59;9.95;;;7.20;;
1014;SDS011;8170;48.118;11.628;2022-12-20T00:55:03;7.38;;;5.82;;
1014;SDS011;8170;48.118;11.628;2022-12-20T00:56:07;8.45;;;6.00;;
1014;SDS011;8170;48.118;11.628;2022-12-20T00:57:11;9.15;;;6.70;;
1014;SDS011;8170;48.118;11.628;2022-12-20T00:58:13;6.22;;;4.70;;
1014;SDS011;8170;48.118;11.628;2022-12-20T00:59:16;5.68;;;5.00;;
1014;SDS011;8170;48.118;11.628;2022-12-20T01:00:19;7.68;;;6.30;;
1014;SDS011;8170;48.118;11.628;2022-12-20T01:01:22;7.05;;;5.43;;
1014;SDS011;8170;48.118;11.628;2022-12-20T01:02:27;5.28;;;4.63;;
1014;SDS011;8170;48.118;11.628;2022-12-20T01:03:30;8.93;;;6.13;;
1014;SDS011;8170;48.118;11.628;2022-12-20T01:04:33;6.28;;;4.95;;
1014;SDS011;8170;48.118;11.628;2022-12-20T01:05:35;7.85;;;4.55;;
1014;SDS011;8170;48.118;11.628;2022-12-20T01:06:39;6.53;;;5.22;;
1014;SDS011;8170;48.118;11.628;2022-12-20T01:07:41;4.82;;;4.32;;
1014;SDS011;8170;48.118;11.628;2022-12-20T01:08:44;6.65;;;4.93;;
1014;SDS011;8170;48.118;11.628;2022-12-20T01:09:47;7.50;;;5.70;;
1014;SDS011;8170;48.118;11.628;2022-12-20T01:10:56;6.55;;;4.70;;
1014;SDS011;8170;48.118;11.628;2022-12-20T01:12:01;6.32;;;5.00;;
1014;SDS011;8170;48.118;11.628;2022-12-20T01:13:04;6.68;;;4.63;;
1014;SDS011;8170;48.118;11.628;2022-12-20T01:14:07;5.75;;;4.43;;
1014;SDS011;8170;48.118;11.628;2022-12-20T01:15:13;5.97;;;4.47;;
1014;SDS011;8170;48.118;11.628;2022-12-20T01:16:17;6.03;;;4.35;;
1014;SDS011;8170;48.118;11.628;2022-12-20T01:17:22;6.15;;;4.35;;
1014;SDS011;8170;48.118;11.628;2022-12-20T01:18:23;5.95;;;4.55;;
1014;SDS011;8170;48.118;11.628;2022-12-20T01:19:27;6.30;;;4.40;;
1014;SDS011;8170;48.118;11.628;2022-12-20T01:20:30;6.75;;;4.85;;
1014;SDS011;8170;48.118;11.628;2022-12-20T01:21:35;5.63;;;4.18;;
1014;SDS011;8170;48.118;11.628;2022-12-20T01:22:40;6.38;;;4.70;;
1014;SDS011;8170;48.118;11.628;2022-12-20T01:23:48;6.82;;;4.47;;
1014;SDS011;8170;48.118;11.628;2022-12-20T01:24:51;6.45;;;4.35;;
1014;SDS011;8170;48.118;11.628;2022-12-20T01:25:53;4.68;;;3.50;;
1014;SDS011;8170;48.118;11.628;2022-12-20T01:26:58;4.95;;;4.00;;
1014;SDS011;8170;48.118;11.628;2022-12-20T01:28:02;6.50;;;4.07;;
1014;SDS011;8170;48.118;11.628;2022-12-20T01:29:05;6.07;;;4.90;;
1014;SDS011;8170;48.118;11.628;2022-12-20T01:30:08;5.65;;;4.22;;
1014;SDS011;8170;48.118;11.628;2022-12-20T01:31:14;6.10;;;4.20;;
1014;SDS011;8170;48.118;11.628;2022-12-20T01:32:17;6.13;;;5.30;;
1014;SDS011;8170;48.118;11.628;2022-12-20T01:33:21;6.15;;;5.47;;
1014;SDS011;8170;48.118;11.628;2022-12-20T01:34:23;6.68;;;5.05;;
1014;SDS011;8170;48.118;11.628;2022-12-20T01:35:26;9.80;;;6.03;;
1014;SDS011;8170;48.118;11.628;2022-12-20T01:36:30;10.48;;;6.00;;
1014;SDS011;8170;48.118;11.628;2022-12-20T01:37:35;7.15;;;5.40;;
1014;SDS011;8170;48.118;11.628;2022-12-20T01:38:37;7.00;;;5.20;;
1014;SDS011;8170;48.118;11.628;2022-12-20T01:39:40;7.70;;;5.00;;
1014;SDS011;8170;48.118;11.628;2022-12-20T01:40:42;8.40;;;5.80;;
1014;SDS011;8170;48.118;11.628;2022-12-20T01:41:46;7.90;;;4.80;;
1014;SDS011;8170;48.118;11.628;2022-12-20T01:42:48;7.53;;;4.97;;
1014;SDS011;8170;48.118;11.628;2022-12-20T01:43:53;7.28;;;4.60;;
1014;SDS011;8170;48.118;11.628;2022-12-20T01:44:57;9.13;;;4.65;;
1014;SDS011;8170;48.118;11.628;2022-12-20T01:46:01;6.97;;;4.38;;
1014;SDS011;8170;48.118;11.628;2022-12-20T01:47:04;6.40;;;4.60;;
1014;SDS011;8170;48.118;11.628;2022-12-20T01:48:07;5.82;;;4.03;;
1014;SDS011;8170;48.118;11.628;2022-12-20T01:49:10;4.13;;;3.45;;
1014;SDS011;8170;48.118;11.628;2022-12-20T01:50:16;5.30;;;3.80;;
1014;SDS011;8170;48.118;11.628;2022-12-20T01:51:19;4.10;;;3.53;;
1014;SDS011;8170;48.118;11.628;2022-12-20T01:52:25;6.38;;;3.60;;
1014;SDS011;8170;48.118;11.628;2022-12-20T01:53:31;5.32;;;4.65;;
1014;SDS011;8170;48.118;11.628;2022-12-20T01:54:35;3.90;;;3.15;;
1014;SDS011;8170;48.118;11.628;2022-12-20T01:55:42;7.25;;;4.78;;
1014;SDS011;8170;48.118;11.628;2022-12-20T01:56:49;5.50;;;3.53;;
1014;SDS011;8170;48.118;11.628;2022-12-20T01:57:57;4.97;;;3.80;;
1014;SDS011;8170;48.118;11.628;2022-12-20T01:59:04;4.78;;;3.30;;
1014;SDS011;8170;48.118;11.628;2022-12-20T02:00:08;4.30;;;3.60;;
1014;SDS011;8170;48.118;11.628;2022-12-20T02:01:15;4.43;;;3.10;;
1014;SDS011;8170;48.118;11.628;2022-12-20T02:02:18;4.25;;;3.20;;
1014;SDS011;8170;48.118;11.628;2022-12-20T02:03:21;5.95;;;3.60;;
1014;SDS011;8170;48.118;11.628;2022-12-20T02:04:23;5.30;;;3.90;;
1014;SDS011;8170;48.118;11.628;2022-12-20T02:05:27;5.50;;;3.55;;
1014;SDS011;8170;48.118;11.628;2022-12-20T02:06:35;7.30;;;4.70;;
1014;SDS011;8170;48.118;11.628;2022-12-20T02:07:38;5.82;;;4.15;;
1014;SDS011;8170;48.118;11.628;2022-12-20T02:08:42;5.07;;;3.55;;
1014;SDS011;8170;48.118;11.628;2022-12-20T02:09:46;5.22;;;4.35;;
1014;SDS011;8170;48.118;11.628;2022-12-20T02:10:54;8.95;;;4.97;;
1014;SDS011;8170;48.118;11.628;2022-12-20T02:12:09;5.60;;;4.00;;
1014;SDS011;8170;48.118;11.628;2022-12-20T02:13:16;5.13;;;4.00;;
1014;SDS011;8170;48.118;11.628;2022-12-20T02:14:31;5.57;;;4.18;;
1014;SDS011;8170;48.118;11.628;2022-12-20T02:15:45;4.93;;;4.18;;
1014;SDS011;8170;48.118;11.628;2022-12-20T02:16:56;4.88;;;3.70;;
1014;SDS011;8170;48.118;11.628;2022-12-20T02:18:06;5.63;;;3.88;;
1014;SDS011;8170;48.118;11.628;2022-12-20T02:19:23;4.53;;;3.95;;
1014;SDS011;8170;48.118;11.628;2022-12-20T02:20:48;4.50;;;3.75;;
1014;SDS011;8170;48.118;11.628;2022-12-20T02:22:13;3.45;;;2.80;;
1014;SDS011;8170;48.118;11.628;2022-12-20T02:23:31;3.90;;;2.92;;
1014;SDS011;8170;48.118;11.628;2022-12-20T02:24:59;4.07;;;3.42;;
1014;SDS011;8170;48.118;11.628;2022-12-20T02:26:30;4.57;;;2.97;;
1014;SDS011;8170;48.118;11.628;2022-12-20T02:27:56;3.55;;;2.97;;
1014;SDS011;8170;48.118;11.628;2022-12-20T02:29:07;6.45;;;3.63;;
1014;SDS011;8170;48.118;11.628;2022-12-20T02:30:21;3.03;;;2.72;;
1014;SDS011;8170;48.118;11.628;2022-12-20T02:31:26;4.70;;;3.33;;
1014;SDS011;8170;48.118;11.628;2022-12-20T02:32:36;4.85;;;3.47;;
1014;SDS011;8170;48.118;11.628;2022-12-20T02:33:42;3.85;;;2.40;;
1014;SDS011;8170;48.118;11.628;2022-12-20T02:34:49;3.30;;;2.88;;
1014;SDS011;8170;48.118;11.628;2022-12-20T02:35:53;4.05;;;3.22;;
1014;SDS011;8170;48.118;11.628;2022-12-20T02:36:55;3.50;;;2.50;;
1014;SDS011;8170;48.118;11.628;2022-12-20T02:37:59;3.70;;;2.50;;
1014;SDS011;8170;48.118;11.628;2022-12-20T02:39:04;3.50;;;2.35;;
1014;SDS011;8170;48.118;11.628;2022-12-20T02:40:07;3.92;;;2.90;;
1014;SDS011;8170;48.118;11.628;2022-12-20T02:41:11;3.60;;;2.88;;
1014;SDS011;8170;48.118;11.628;2022-12-20T02:42:19;3.08;;;2.55;;
1014;SDS011;8170;48.118;11.628;2022-12-20T02:43:25;3.80;;;2.50;;
1014;SDS011;8170;48.118;11.628;2022-12-20T02:44:49;3.33;;;2.50;;
1014;SDS011;8170;48.118;11.628;2022-12-20T02:46:15;3.17;;;2.53;;
1014;SDS011;8170;48.118;11.628;2022-12-20T02:47:20;3.10;;;2.47;;
1014;SDS011;8170;48.118;11.628;2022-12-20T02:48:27;3.47;;;2.70;;
1014;SDS011;8170;48.118;11.628;2022-12-20T02:49:34;3.80;;;3.10;;
1014;SDS011;8170;48.118;11.628;2022-12-20T02:50:43;2.92;;;2.28;;
1014;SDS011;8170;48.118;11.628;2022-12-20T02:51:48;4.90;;;3.25;;
1014;SDS011;8170;48.118;11.628;2022-12-20T02:52:53;4.22;;;3.22;;
1014;SDS011;8170;48.118;11.628;2022-12-20T02:53:56;4.70;;;3.30;;
1014;SDS011;8170;48.118;11.628;2022-12-20T02:54:59;3.40;;;2.80;;
1014;SDS011;8170;48.118;11.628;2022-12-20T02:56:09;5.65;;;3.05;;
1014;SDS011;8170;48.118;11.628;2022-12-20T02:57:18;3.90;;;3.22;;
1014;SDS011;8170;48.118;11.628;2022-12-20T02:58:25;6.20;;;3.53;;
1014;SDS011;8170;48.118;11.628;2022-12-20T02:59:35;4.28;;;3.17;;
1014;SDS011;8170;48.118;11.628;2022-12-20T03:00:44;4.38;;;3.03;;
1014;SDS011;8170;48.118;11.628;2022-12-20T03:01:51;5.43;;;3.38;;
1014;SDS011;8170;48.118;11.628;2022-12-20T03:02:57;5.78;;;3.03;;
1014;SDS011;8170;48.118;11.628;2022-12-20T03:04:20;3.70;;;3.33;;
1014;SDS011;8170;48.118;11.628;2022-12-20T03:05:26;3.90;;;3.10;;
1014;SDS011;8170;48.118;11.628;2022-12-20T03:06:29;3.30;;;2.40;;
1014;SDS011;8170;48.118;11.628;2022-12-20T03:07:33;6.00;;;3.88;;
1014;SDS011;8170;48.118;11.628;2022-12-20T03:08:35;3.67;;;2.55;;
1014;SDS011;8170;48.118;11.628;2022-12-20T03:09:39;3.90;;;3.42;;
1014;SDS011;8170;48.118;11.628;2022-12-20T03:10:42;3.90;;;2.65;;
1014;SDS011;8170;48.118;11.628;2022-12-20T03:11:45;3.28;;;2.58;;
1014;SDS011;8170;48.118;11.628;2022-12-20T03:12:47;2.10;;;1.90;;
1014;SDS011;8170;48.118;11.628;2022-12-20T03:13:51;4.10;;;2.17;;
1014;SDS011;8170;48.118;11.628;2022-12-20T03:14:53;4.57;;;3.00;;
1014;SDS011;8170;48.118;11.628;2022-12-20T03:15:57;3.15;;;2.40;;
1014;SDS011;8170;48.118;11.628;2022-12-20T03:17:00;4.50;;;2.90;;
1014;SDS011;8170;48.118;11.628;2022-12-20T03:18:03;3.85;;;3.10;;
1014;SDS011;8170;48.118;11.628;2022-12-20T03:19:06;3.72;;;2.97;;
1014;SDS011;8170;48.118;11.628;2022-12-20T03:20:09;3.90;;;2.88;;
1014;SDS011;8170;48.118;11.628;2022-12-20T03:21:12;3.83;;;2.90;;
1014;SDS011;8170;48.118;11.628;2022-12-20T03:22:14;2.85;;;2.20;;
1014;SDS011;8170;48.118;11.628;2022-12-20T03:23:17;3.15;;;2.40;;
1014;SDS011;8170;48.118;11.628;2022-12-20T03:24:20;3.30;;;2.30;;
1014;SDS011;8170;48.118;11.628;2022-12-20T03:25:24;2.70;;;2.10;;
1014;SDS011;8170;48.118;11.628;2022-12-20T03:26:26;3.50;;;2.25;;
1014;SDS011;8170;48.118;11.628;2022-12-20T03:27:32;3.60;;;3.10;;
1014;SDS011;8170;48.118;11.628;2022-12-20T03:28:36;3.65;;;2.92;;
1014;SDS011;8170;48.118;11.628;2022-12-20T03:29:41;3.55;;;2.10;;
1014;SDS011;8170;48.118;11.628;2022-12-20T03:30:43;3.42;;;3.03;;
1014;SDS011;8170;48.118;11.628;2022-12-20T03:31:47;3.53;;;2.80;;
1014;SDS011;8170;48.118;11.628;2022-12-20T03:32:51;3.45;;;2.75;;
1014;SDS011;8170;48.118;11.628;2022-12-20T03:33:54;4.75;;;3.88;;
1014;SDS011;8170;48.118;11.628;2022-12-20T03:34:56;5.30;;;3.55;;
1014;SDS011;8170;48.118;11.628;2022-12-20T03:36:05;3.33;;;2.50;;
1014;SDS011;8170;48.118;11.628;2022-12-20T03:37:07;7.13;;;3.80;;
1014;SDS011;8170;48.118;11.628;2022-12-20T03:38:10;6.18;;;3.30;;
1014;SDS011;8170;48.118;11.628;2022-12-20T03:39:13;4.22;;;3.13;;
1014;SDS011;8170;48.118;11.628;2022-12-20T03:40:16;7.57;;;4.10;;
1014;SDS011;8170;48.118;11.628;2022-12-20T03:41:18;5.28;;;3.42;;
1014;SDS011;8170;48.118;11.628;2022-12-20T03:42:23;3.10;;;2.67;;
1014;SDS011;8170;48.118;11.628;2022-12-20T03:43:25;4.40;;;3.03;;
1014;SDS011;8170;48.118;11.628;2022-12-20T03:44:28;3.35;;;2.38;;
1014;SDS011;8170;48.118;11.628;2022-12-20T03:45:31;2.80;;;2.25;;
1014;SDS011;8170;48.118;11.628;2022-12-20T03:46:34;3.95;;;2.90;;
1014;SDS011;8170;48.118;11.628;2022-12-20T03:47:37;4.68;;;3.10;;
1014;SDS011;8170;48.118;11.628;2022-12-20T03:48:42;5.22;;;3.83;;
1014;SDS011;8170;48.118;11.628;2022-12-20T03:49:46;5.85;;;3.28;;
1014;SDS011;8170;48.118;11.628;2022-12-20T03:50:49;5.35;;;3.25;;
1014;SDS011;8170;48.118;11.628;2022-12-20T03:51:52;6.57;;;2.97;;
1014;SDS011;8170;48.118;11.628;2022-12-20T03:52:55;10.77;;;3.63;;
1014;SDS011;8170;48.118;11.628;2022-12-20T03:53:59;6.00;;;3.53;;
1014;SDS011;8170;48.118;11.628;2022-12-20T03:55:19;5.95;;;3.25;;
1014;SDS011;8170;48.118;11.628;2022-12-20T03:56:22;5.53;;;3.20;;
1014;SDS011;8170;48.118;11.628;2022-12-20T03:57:24;5.28;;;3.10;;
1014;SDS011;8170;48.118;11.628;2022-12-20T03:58:29;5.15;;;3.45;;
1014;SDS011;8170;48.118;11.628;2022-12-20T03:59:33;4.90;;;3.20;;
1014;SDS011;8170;48.118;11.628;2022-12-20T04:00:38;4.97;;;3.10;;
1014;SDS011;8170;48.118;11.628;2022-12-20T04:02:05;4.07;;;2.60;;
1014;SDS011;8170;48.118;11.628;2022-12-20T04:03:08;3.53;;;2.60;;
1014;SDS011;8170;48.118;11.628;2022-12-20T04:04:12;5.80;;;2.92;;
1014;SDS011;8170;48.118;11.628;2022-12-20T04:05:17;3.67;;;2.67;;
1014;SDS011;8170;48.118;11.628;2022-12-20T04:06:20;3.40;;;2.30;;
1014;SDS011;8170;48.118;11.628;2022-12-20T04:07:24;2.85;;;2.20;;
1014;SDS011;8170;48.118;11.628;2022-12-20T04:08:26;4.32;;;2.72;;
1014;SDS011;8170;48.118;11.628;2022-12-20T04:09:30;3.60;;;2.25;;
1014;SDS011;8170;48.118;11.628;2022-12-20T04:10:39;3.70;;;2.35;;
1014;SDS011;8170;48.118;11.628;2022-12-20T04:11:57;3.10;;;2.40;;
1014;SDS011;8170;48.118;11.628;2022-12-20T04:13:01;2.50;;;1.90;;
1014;SDS011;8170;48.118;11.628;2022-12-20T04:14:04;3.10;;;2.28;;
1014;SDS011;8170;48.118;11.628;2022-12-20T04:15:07;3.45;;;2.28;;
1014;SDS011;8170;48.118;11.628;2022-12-20T04:16:13;2.30;;;2.10;;
1014;SDS011;8170;48.118;11.628;2022-12-20T04:17:17;3.10;;;2.30;;
1014;SDS011;8170;48.118;11.628;2022-12-20T04:18:20;2.72;;;2.00;;
1014;SDS011;8170;48.118;11.628;2022-12-20T04:19:24;3.28;;;2.15;;
1014;SDS011;8170;48.118;11.628;2022-12-20T04:20:26;3.10;;;2.20;;
1014;SDS011;8170;48.118;11.628;2022-12-20T04:21:47;2.30;;;1.98;;
1014;SDS011;8170;48.118;11.628;2022-12-20T04:22:51;2.40;;;2.00;;
1014;SDS011;8170;48.118;11.628;2022-12-20T04:23:55;3.05;;;2.22;;
1014;SDS011;8170;48.118;11.628;2022-12-20T04:25:02;2.30;;;1.75;;
1014;SDS011;8170;48.118;11.628;2022-12-20T04:26:11;3.00;;;2.20;;
1014;SDS011;8170;48.118;11.628;2022-12-20T04:27:13;2.40;;;1.90;;
1014;SDS011;8170;48.118;11.628;2022-12-20T04:28:16;2.90;;;2.60;;
1014;SDS011;8170;48.118;11.628;2022-12-20T04:29:19;4.47;;;2.45;;
1014;SDS011;8170;48.118;11.628;2022-12-20T04:30:22;3.05;;;2.45;;
1014;SDS011;8170;48.118;11.628;2022-12-20T04:31:24;3.03;;;2.50;;
1014;SDS011;8170;48.118;11.628;2022-12-20T04:32:28;2.80;;;2.20;;
1014;SDS011;8170;48.118;11.628;2022-12-20T04:33:30;3.38;;;2.38;;
1014;SDS011;8170;48.118;11.628;2022-12-20T04:34:35;3.95;;;2.63;;
1014;SDS011;8170;48.118;11.628;2022-12-20T04:35:38;3.50;;;2.65;;
1014;SDS011;8170;48.118;11.628;2022-12-20T04:36:41;3.70;;;2.45;;
1014;SDS011;8170;48.118;11.628;2022-12-20T04:37:49;6.13;;;2.65;;
1014;SDS011;8170;48.118;11.628;2022-12-20T04:38:52;5.63;;;2.88;;
1014;SDS011;8170;48.118;11.628;2022-12-20T04:39:55;3.45;;;2.50;;
1014;SDS011;8170;48.118;11.628;2022-12-20T04:41:07;3.75;;;2.67;;
1014;SDS011;8170;48.118;11.628;2022-12-20T04:42:19;3.53;;;2.35;;
1014;SDS011;8170;48.118;11.628;2022-12-20T04:43:24;4.03;;;3.17;;
1014;SDS011;8170;48.118;11.628;2022-12-20T04:44:29;5.40;;;2.83;;
1014;SDS011;8170;48.118;11.628;2022-12-20T04:45:32;2.80;;;2.50;;
1014;SDS011;8170;48.118;11.628;2022-12-20T04:46:35;3.88;;;2.72;;
1014;SDS011;8170;48.118;11.628;2022-12-20T04:47:42;3.08;;;2.38;;
1014;SDS011;8170;48.118;11.628;2022-12-20T04:48:47;3.20;;;2.45;;
1014;SDS011;8170;48.118;11.628;2022-12-20T04:50:01;2.55;;;2.13;;
1014;SDS011;8170;48.118;11.628;2022-12-20T04:51:03;3.22;;;2.25;;
1014;SDS011;8170;48.118;11.628;2022-12-20T04:52:06;2.35;;;1.90;;
1014;SDS011;8170;48.118;11.628;2022-12-20T04:53:24;3.50;;;3.05;;
1014;SDS011;8170;48.118;11.628;2022-12-20T04:54:44;3.13;;;2.35;;
1014;SDS011;8170;48.118;11.628;2022-12-20T04:55:55;3.55;;;2.70;;
1014;SDS011;8170;48.118;11.628;2022-12-20T04:56:57;2.80;;;2.17;;
1014;SDS011;8170;48.118;11.628;2022-12-20T04:58:00;2.95;;;2.55;;
1014;SDS011;8170;48.118;11.628;2022-12-20T04:59:09;2.90;;;2.22;;
1014;SDS011;8170;48.118;11.628;2022-12-20T05:00:15;2.88;;;2.50;;
1014;SDS011;8170;48.118;11.628;2022-12-20T05:01:23;2.90;;;2.60;;
1014;SDS011;8170;48.118;11.628;2022-12-20T05:02:27;3.30;;;2.60;;
1014;SDS011;8170;48.118;11.628;2022-12-20T05:03:36;3.72;;;2.35;;
1014;SDS011;8170;48.118;11.628;2022-12-20T05:04:40;3.67;;;2.35;;
1014;SDS011;8170;48.118;11.628;2022-12-20T05:05:44;3.90;;;2.90;;
1014;SDS011;8170;48.118;11.628;2022-12-20T05:06:47;10.50;;;7.20;;
1014;SDS011;8170;48.118;11.628;2022-12-20T05:07:50;21.75;;;14.77;;
1014;SDS011;8170;48.118;11.628;2022-12-20T05:08:53;15.20;;;9.23;;
1014;SDS011;8170;48.118;11.628;2022-12-20T05:09:58;8.25;;;5.28;;
1014;SDS011;8170;48.118;11.628;2022-12-20T05:11:00;10.00;;;5.93;;
1014;SDS011;8170;48.118;11.628;2022-12-20T05:12:05;8.18;;;5.90;;
1014;SDS011;8170;48.118;11.628;2022-12-20T05:13:07;10.10;;;6.10;;
1014;SDS011;8170;48.118;11.628;2022-12-20T05:14:15;7.80;;;5.30;;
1014;SDS011;8170;48.118;11.628;2022-12-20T05:15:17;8.23;;;5.88;;
1014;SDS011;8170;48.118;11.628;2022-12-20T05:16:20;9.43;;;6.13;;
1014;SDS011;8170;48.118;11.628;2022-12-20T05:17:26;11.75;;;7.45;;
1014;SDS011;8170;48.118;11.628;2022-12-20T05:18:28;11.77;;;7.57;;
1014;SDS011;8170;48.118;11.628;2022-12-20T05:19:35;14.43;;;10.07;;
1014;SDS011;8170;48.118;11.628;2022-12-20T05:20:37;16.02;;;10.50;;
1014;SDS011;8170;48.118;11.628;2022-12-20T05:21:42;13.93;;;9.30;;
1014;SDS011;8170;48.118;11.628;2022-12-20T05:23:03;11.75;;;7.18;;
1014;SDS011;8170;48.118;11.628;2022-12-20T05:24:29;8.63;;;6.43;;
1014;SDS011;8170;48.118;11.628;2022-12-20T05:25:59;9.80;;;5.97;;
1014;SDS011;8170;48.118;11.628;2022-12-20T05:27:26;6.28;;;4.45;;
1014;SDS011;8170;48.118;11.628;2022-12-20T05:28:29;6.97;;;4.70;;
1014;SDS011;8170;48.118;11.628;2022-12-20T05:29:32;6.03;;;4.75;;
1014;SDS011;8170;48.118;11.628;2022-12-20T05:30:35;6.90;;;4.65;;
1014;SDS011;8170;48.118;11.628;2022-12-20T05:31:37;4.65;;;3.53;;
1014;SDS011;8170;48.118;11.628;2022-12-20T05:32:40;6.68;;;4.00;;
1014;SDS011;8170;48.118;11.628;2022-12-20T05:33:43;5.75;;;3.60;;
1014;SDS011;8170;48.118;11.628;2022-12-20T05:34:46;3.45;;;2.92;;
1014;SDS011;8170;48.118;11.628;2022-12-20T05:35:49;3.40;;;2.90;;
1014;SDS011;8170;48.118;11.628;2022-12-20T05:36:54;3.75;;;3.25;;
1014;SDS011;8170;48.118;11.628;2022-12-20T05:38:01;4.88;;;3.10;;
1014;SDS011;8170;48.118;11.628;2022-12-20T05:39:04;4.45;;;3.05;;
1014;SDS011;8170;48.118;11.628;2022-12-20T05:40:11;3.88;;;3.28;;
1014;SDS011;8170;48.118;11.628;2022-12-20T05:41:14;3.80;;;2.90;;
1014;SDS011;8170;48.118;11.628;2022-12-20T05:42:21;2.85;;;2.50;;
1014;SDS011;8170;48.118;11.628;2022-12-20T05:43:26;4.10;;;3.15;;
1014;SDS011;8170;48.118;11.628;2022-12-20T05:44:29;4.88;;;3.70;;
1014;SDS011;8170;48.118;11.628;2022-12-20T05:45:33;3.50;;;3.20;;
1014;SDS011;8170;48.118;11.628;2022-12-20T05:46:40;5.15;;;3.35;;
1014;SDS011;8170;48.118;11.628;2022-12-20T05:47:49;3.90;;;3.10;;
1014;SDS011;8170;48.118;11.628;2022-12-20T05:48:51;4.25;;;3.33;;
1014;SDS011;8170;48.118;11.628;2022-12-20T05:49:54;3.83;;;3.05;;
1014;SDS011;8170;48.118;11.628;2022-12-20T05:50:56;3.50;;;2.58;;
1014;SDS011;8170;48.118;11.628;2022-12-20T05:52:04;4.10;;;3.10;;
1014;SDS011;8170;48.118;11.628;2022-12-20T05:53:08;2.53;;;2.25;;
1014;SDS011;8170;48.118;11.628;2022-12-20T05:54:18;3.92;;;3.25;;
1014;SDS011;8170;48.118;11.628;2022-12-20T05:55:28;3.25;;;2.60;;
1014;SDS011;8170;48.118;11.628;2022-12-20T05:56:31;3.22;;;2.50;;
1014;SDS011;8170;48.118;11.628;2022-12-20T05:57:34;3.30;;;2.80;;
1014;SDS011;8170;48.118;11.628;2022-12-20T05:58:36;5.00;;;2.65;;
1014;SDS011;8170;48.118;11.628;2022-12-20T05:59:40;3.55;;;3.17;;
1014;SDS011;8170;48.118;11.628;2022-12-20T06:00:49;3.63;;;2.53;;
1014;SDS011;8170;48.118;11.628;2022-12-20T06:01:52;3.05;;;2.35;;
1014;SDS011;8170;48.118;11.628;2022-12-20T06:02:57;3.78;;;3.35;;
1014;SDS011;8170;48.118;11.628;2022-12-20T06:04:00;6.55;;;2.90;;
1014;SDS011;8170;48.118;11.628;2022-12-20T06:05:03;3.53;;;2.70;;
1014;SDS011;8170;48.118;11.628;2022-12-20T06:06:07;3.03;;;2.35;;
1014;SDS011;8170;48.118;11.628;2022-12-20T06:07:17;3.30;;;2.72;;
1014;SDS011;8170;48.118;11.628;2022-12-20T06:08:24;5.60;;;3.13;;
1014;SDS011;8170;48.118;11.628;2022-12-20T06:09:28;3.92;;;2.70;;
1014;SDS011;8170;48.118;11.628;2022-12-20T06:10:38;4.60;;;2.95;;
1014;SDS011;8170;48.118;11.628;2022-12-20T06:11:42;3.28;;;2.85;;
1014;SDS011;8170;48.118;11.628;2022-12-20T06:12:47;3.90;;;2.80;;
1014;SDS011;8170;48.118;11.628;2022-12-20T06:13:51;3.22;;;2.70;;
1014;SDS011;8170;48.118;11.628;2022-12-20T06:14:55;3.40;;;2.50;;
1014;SDS011;8170;48.118;11.628;2022-12-20T06:15:57;3.97;;;2.95;;
1014;SDS011;8170;48.118;11.628;2022-12-20T06:17:03;5.03;;;3.55;;
1014;SDS011;8170;48.118;11.628;2022-12-20T06:18:06;6.80;;;3.03;;
1014;SDS011;8170;48.118;11.628;2022-12-20T06:19:11;5.70;;;3.47;;
1014;SDS011;8170;48.118;11.628;2022-12-20T06:20:22;3.88;;;2.63;;
1014;SDS011;8170;48.118;11.628;2022-12-20T06:21:26;4.82;;;2.97;;
1014;SDS011;8170;48.118;11.628;2022-12-20T06:22:32;3.28;;;2.67;;
1014;SDS011;8170;48.118;11.628;2022-12-20T06:23:34;13.10;;;3.78;;
1014;SDS011;8170;48.118;11.628;2022-12-20T06:24:47;13.82;;;5.15;;
1014;SDS011;8170;48.118;11.628;2022-12-20T06:25:53;12.07;;;4.82;;
1014;SDS011;8170;48.118;11.628;2022-12-20T06:26:57;10.70;;;4.10;;
1014;SDS011;8170;48.118;11.628;2022-12-20T06:28:00;3.45;;;2.60;;
1014;SDS011;8170;48.118;11.628;2022-12-20T06:29:04;4.38;;;3.03;;
1014;SDS011;8170;48.118;11.628;2022-12-20T06:30:15;5.88;;;2.65;;
1014;SDS011;8170;48.118;11.628;2022-12-20T06:31:46;4.25;;;2.60;;
1014;SDS011;8170;48.118;11.628;2022-12-20T06:32:49;3.78;;;2.70;;
1014;SDS011;8170;48.118;11.628;2022-12-20T06:33:54;2.65;;;2.45;;
1014;SDS011;8170;48.118;11.628;2022-12-20T06:34:58;3.60;;;2.40;;
1014;SDS011;8170;48.118;11.628;2022-12-20T06:36:02;2.90;;;2.22;;
1014;SDS011;8170;48.118;11.628;2022-12-20T06:37:06;2.83;;;2.28;;
1014;SDS011;8170;48.118;11.628;2022-12-20T06:38:10;3.72;;;3.13;;
1014;SDS011;8170;48.118;11.628;2022-12-20T06:39:13;2.97;;;2.28;;